Stocks Resvr, United Kingdom
Current Conditions -  °F | °C
As of 4:20 PM on Friday 24 Oct 2014 (Local Time) from EGNO Reporting Station
Few Clouds Few Clouds  
Wind Chill: 12°   Ceiling: Unl
Heat Index: 12°   Visibility: 6mi
Dew Point:   Wind: 12mph
Humidity: 72%   Direction: 250°WSW
Pressure: 29.83"   Gusts: NA
Location:  54°N, 2.43°W
Report Text: EGNO 241520Z 25010KT 9999 FEW023 12/07 Q1010
Loading
Personal Weather Stations






























Interactive Weather Map
Tropical Storm Tracking
New forecast layout! Learn more

10-Day Weather Forecast

Advertisements
Track Severe Weather on mobile